sensor_id;sensor_type;location;lat;lon;timestamp;P1;durP1;ratioP1;P2;durP2;ratioP2
25125;SDS011;13106;50.808;5.670;2023-04-03T00:00:50;7.13;;;6.50;;
25125;SDS011;13106;50.808;5.670;2023-04-03T00:03:17;8.23;;;7.13;;
25125;SDS011;13106;50.808;5.670;2023-04-03T00:05:43;10.27;;;6.93;;
25125;SDS011;13106;50.808;5.670;2023-04-03T00:08:10;8.45;;;6.22;;
25125;SDS011;13106;50.808;5.670;2023-04-03T00:10:36;7.20;;;5.88;;
25125;SDS011;13106;50.808;5.670;2023-04-03T00:13:03;10.40;;;6.22;;
25125;SDS011;13106;50.808;5.670;2023-04-03T00:15:30;9.80;;;6.82;;
25125;SDS011;13106;50.808;5.670;2023-04-03T00:17:56;11.15;;;6.57;;
25125;SDS011;13106;50.808;5.670;2023-04-03T00:20:22;8.07;;;7.28;;
25125;SDS011;13106;50.808;5.670;2023-04-03T00:22:48;11.38;;;7.85;;
25125;SDS011;13106;50.808;5.670;2023-04-03T00:25:15;10.18;;;7.75;;
25125;SDS011;13106;50.808;5.670;2023-04-03T00:27:41;9.30;;;6.53;;
25125;SDS011;13106;50.808;5.670;2023-04-03T00:30:08;7.13;;;6.32;;
25125;SDS011;13106;50.808;5.670;2023-04-03T00:32:34;9.15;;;6.38;;
25125;SDS011;13106;50.808;5.670;2023-04-03T00:35:00;9.18;;;6.70;;
25125;SDS011;13106;50.808;5.670;2023-04-03T00:37:26;7.40;;;6.70;;
25125;SDS011;13106;50.808;5.670;2023-04-03T00:39:52;10.55;;;7.20;;
25125;SDS011;13106;50.808;5.670;2023-04-03T00:42:18;7.50;;;6.78;;
25125;SDS011;13106;50.808;5.670;2023-04-03T00:47:11;7.45;;;6.65;;
25125;SDS011;13106;50.808;5.670;2023-04-03T00:49:39;9.90;;;6.63;;
25125;SDS011;13106;50.808;5.670;2023-04-03T00:52:06;8.32;;;7.35;;
25125;SDS011;13106;50.808;5.670;2023-04-03T00:54:37;8.27;;;7.47;;
25125;SDS011;13106;50.808;5.670;2023-04-03T00:57:04;12.18;;;7.80;;
25125;SDS011;13106;50.808;5.670;2023-04-03T00:59:32;9.77;;;6.60;;
25125;SDS011;13106;50.808;5.670;2023-04-03T01:02:00;8.95;;;6.88;;
25125;SDS011;13106;50.808;5.670;2023-04-03T01:04:27;9.68;;;7.43;;
25125;SDS011;13106;50.808;5.670;2023-04-03T01:06:53;9.18;;;7.70;;
25125;SDS011;13106;50.808;5.670;2023-04-03T01:09:21;12.15;;;8.93;;
25125;SDS011;13106;50.808;5.670;2023-04-03T01:11:47;11.45;;;10.32;;
25125;SDS011;13106;50.808;5.670;2023-04-03T01:14:13;8.38;;;7.38;;
25125;SDS011;13106;50.808;5.670;2023-04-03T01:16:39;9.27;;;7.82;;
25125;SDS011;13106;50.808;5.670;2023-04-03T01:19:13;8.57;;;7.30;;
25125;SDS011;13106;50.808;5.670;2023-04-03T01:21:56;10.18;;;7.60;;
25125;SDS011;13106;50.808;5.670;2023-04-03T01:24:32;10.88;;;8.70;;
25125;SDS011;13106;50.808;5.670;2023-04-03T01:26:59;9.57;;;7.07;;
25125;SDS011;13106;50.808;5.670;2023-04-03T01:29:25;8.93;;;8.02;;
25125;SDS011;13106;50.808;5.670;2023-04-03T01:34:18;10.63;;;9.02;;
25125;SDS011;13106;50.808;5.670;2023-04-03T01:36:44;11.10;;;8.63;;
25125;SDS011;13106;50.808;5.670;2023-04-03T01:39:10;9.45;;;8.52;;
25125;SDS011;13106;50.808;5.670;2023-04-03T01:41:37;8.80;;;7.93;;
25125;SDS011;13106;50.808;5.670;2023-04-03T01:44:03;10.95;;;8.07;;
25125;SDS011;13106;50.808;5.670;2023-04-03T01:46:29;8.68;;;7.78;;
25125;SDS011;13106;50.808;5.670;2023-04-03T01:48:55;8.82;;;7.72;;
25125;SDS011;13106;50.808;5.670;2023-04-03T01:51:21;9.15;;;8.18;;
25125;SDS011;13106;50.808;5.670;2023-04-03T01:53:47;10.90;;;6.32;;
25125;SDS011;13106;50.808;5.670;2023-04-03T01:56:14;10.23;;;6.90;;
25125;SDS011;13106;50.808;5.670;2023-04-03T01:58:40;9.02;;;8.18;;
25125;SDS011;13106;50.808;5.670;2023-04-03T02:01:06;9.15;;;7.85;;
25125;SDS011;13106;50.808;5.670;2023-04-03T02:03:32;9.27;;;7.35;;
25125;SDS011;13106;50.808;5.670;2023-04-03T02:05:58;9.48;;;7.80;;
25125;SDS011;13106;50.808;5.670;2023-04-03T02:08:25;8.32;;;7.60;;
25125;SDS011;13106;50.808;5.670;2023-04-03T02:10:51;11.60;;;9.18;;
25125;SDS011;13106;50.808;5.670;2023-04-03T02:13:17;12.05;;;10.98;;
25125;SDS011;13106;50.808;5.670;2023-04-03T02:15:44;10.23;;;8.10;;
25125;SDS011;13106;50.808;5.670;2023-04-03T02:18:10;12.77;;;7.85;;
25125;SDS011;13106;50.808;5.670;2023-04-03T02:20:36;11.57;;;10.32;;
25125;SDS011;13106;50.808;5.670;2023-04-03T02:23:03;12.85;;;11.80;;
25125;SDS011;13106;50.808;5.670;2023-04-03T02:25:30;9.75;;;8.77;;
25125;SDS011;13106;50.808;5.670;2023-04-03T02:27:56;9.75;;;7.85;;
25125;SDS011;13106;50.808;5.670;2023-04-03T02:30:22;8.50;;;7.60;;
25125;SDS011;13106;50.808;5.670;2023-04-03T02:32:48;8.77;;;7.88;;
25125;SDS011;13106;50.808;5.670;2023-04-03T02:35:14;12.23;;;11.10;;
25125;SDS011;13106;50.808;5.670;2023-04-03T02:37:41;12.48;;;11.25;;
25125;SDS011;13106;50.808;5.670;2023-04-03T02:40:07;11.63;;;10.45;;
25125;SDS011;13106;50.808;5.670;2023-04-03T02:42:33;13.88;;;12.68;;
25125;SDS011;13106;50.808;5.670;2023-04-03T02:44:59;12.35;;;11.15;;
25125;SDS011;13106;50.808;5.670;2023-04-03T02:47:26;13.20;;;12.07;;
25125;SDS011;13106;50.808;5.670;2023-04-03T02:49:52;15.35;;;13.75;;
25125;SDS011;13106;50.808;5.670;2023-04-03T02:52:19;17.10;;;15.68;;
25125;SDS011;13106;50.808;5.670;2023-04-03T02:54:45;14.75;;;13.20;;
25125;SDS011;13106;50.808;5.670;2023-04-03T02:57:11;14.27;;;13.07;;
25125;SDS011;13106;50.808;5.670;2023-04-03T02:59:37;14.80;;;10.95;;
25125;SDS011;13106;50.808;5.670;2023-04-03T03:02:07;10.43;;;9.40;;
25125;SDS011;13106;50.808;5.670;2023-04-03T03:04:34;9.90;;;8.90;;
25125;SDS011;13106;50.808;5.670;2023-04-03T03:07:00;11.90;;;8.43;;
25125;SDS011;13106;50.808;5.670;2023-04-03T03:09:26;12.90;;;9.40;;
25125;SDS011;13106;50.808;5.670;2023-04-03T03:11:52;11.85;;;9.18;;
25125;SDS011;13106;50.808;5.670;2023-04-03T03:14:18;11.00;;;9.70;;
25125;SDS011;13106;50.808;5.670;2023-04-03T03:16:44;10.50;;;9.50;;
25125;SDS011;13106;50.808;5.670;2023-04-03T03:19:10;9.25;;;8.32;;
25125;SDS011;13106;50.808;5.670;2023-04-03T03:21:36;11.00;;;8.98;;
25125;SDS011;13106;50.808;5.670;2023-04-03T03:24:03;10.43;;;9.27;;
25125;SDS011;13106;50.808;5.670;2023-04-03T03:26:29;12.30;;;11.05;;
25125;SDS011;13106;50.808;5.670;2023-04-03T03:28:55;11.30;;;10.20;;
25125;SDS011;13106;50.808;5.670;2023-04-03T03:31:21;13.63;;;10.93;;
25125;SDS011;13106;50.808;5.670;2023-04-03T03:33:47;13.55;;;10.77;;
25125;SDS011;13106;50.808;5.670;2023-04-03T03:36:13;16.25;;;10.15;;
25125;SDS011;13106;50.808;5.670;2023-04-03T03:38:39;11.30;;;10.13;;
25125;SDS011;13106;50.808;5.670;2023-04-03T03:41:05;13.20;;;10.65;;
25125;SDS011;13106;50.808;5.670;2023-04-03T03:43:32;13.40;;;10.95;;
25125;SDS011;13106;50.808;5.670;2023-04-03T03:45:58;10.95;;;9.32;;
25125;SDS011;13106;50.808;5.670;2023-04-03T03:48:24;10.95;;;9.07;;
25125;SDS011;13106;50.808;5.670;2023-04-03T03:50:50;12.38;;;10.27;;
25125;SDS011;13106;50.808;5.670;2023-04-03T03:53:16;16.55;;;11.40;;
25125;SDS011;13106;50.808;5.670;2023-04-03T03:55:43;11.05;;;9.77;;
25125;SDS011;13106;50.808;5.670;2023-04-03T03:58:09;14.40;;;9.77;;
25125;SDS011;13106;50.808;5.670;2023-04-03T04:00:35;10.77;;;8.80;;
25125;SDS011;13106;50.808;5.670;2023-04-03T04:03:01;15.77;;;10.05;;
25125;SDS011;13106;50.808;5.670;2023-04-03T04:05:27;15.73;;;10.63;;
25125;SDS011;13106;50.808;5.670;2023-04-03T04:07:53;12.10;;;9.70;;
25125;SDS011;13106;50.808;5.670;2023-04-03T04:10:19;13.23;;;9.88;;
25125;SDS011;13106;50.808;5.670;2023-04-03T04:12:45;11.02;;;8.93;;
25125;SDS011;13106;50.808;5.670;2023-04-03T04:15:14;12.38;;;10.90;;
25125;SDS011;13106;50.808;5.670;2023-04-03T04:17:40;12.05;;;10.15;;
25125;SDS011;13106;50.808;5.670;2023-04-03T04:20:06;15.10;;;12.38;;
25125;SDS011;13106;50.808;5.670;2023-04-03T04:22:32;13.77;;;10.60;;
25125;SDS011;13106;50.808;5.670;2023-04-03T04:24:58;11.00;;;9.88;;
25125;SDS011;13106;50.808;5.670;2023-04-03T04:27:24;11.68;;;10.48;;
25125;SDS011;13106;50.808;5.670;2023-04-03T04:29:50;13.32;;;12.00;;
25125;SDS011;13106;50.808;5.670;2023-04-03T04:32:16;15.15;;;11.38;;
25125;SDS011;13106;50.808;5.670;2023-04-03T04:34:42;14.57;;;12.02;;
25125;SDS011;13106;50.808;5.670;2023-04-03T04:37:08;14.82;;;11.00;;
25125;SDS011;13106;50.808;5.670;2023-04-03T04:39:34;13.70;;;12.30;;
25125;SDS011;13106;50.808;5.670;2023-04-03T04:42:00;20.30;;;11.20;;
25125;SDS011;13106;50.808;5.670;2023-04-03T04:44:26;15.73;;;12.93;;
25125;SDS011;13106;50.808;5.670;2023-04-03T04:46:53;20.75;;;15.82;;
25125;SDS011;13106;50.808;5.670;2023-04-03T04:49:19;15.45;;;13.65;;
25125;SDS011;13106;50.808;5.670;2023-04-03T04:51:45;17.35;;;12.82;;
25125;SDS011;13106;50.808;5.670;2023-04-03T04:54:11;16.80;;;13.45;;
25125;SDS011;13106;50.808;5.670;2023-04-03T04:56:37;19.63;;;16.02;;
25125;SDS011;13106;50.808;5.670;2023-04-03T04:59:03;17.80;;;15.07;;
25125;SDS011;13106;50.808;5.670;2023-04-03T05:01:29;16.65;;;13.50;;
25125;SDS011;13106;50.808;5.670;2023-04-03T05:03:55;18.05;;;15.25;;
25125;SDS011;13106;50.808;5.670;2023-04-03T05:06:21;16.67;;;14.40;;
25125;SDS011;13106;50.808;5.670;2023-04-03T05:08:47;18.50;;;13.32;;
25125;SDS011;13106;50.808;5.670;2023-04-03T05:11:14;18.35;;;15.40;;
25125;SDS011;13106;50.808;5.670;2023-04-03T05:13:40;20.75;;;18.67;;
25125;SDS011;13106;50.808;5.670;2023-04-03T05:16:06;21.60;;;15.95;;
25125;SDS011;13106;50.808;5.670;2023-04-03T05:18:32;24.33;;;22.08;;
25125;SDS011;13106;50.808;5.670;2023-04-03T05:20:58;21.20;;;18.70;;
25125;SDS011;13106;50.808;5.670;2023-04-03T05:23:24;21.58;;;19.38;;
25125;SDS011;13106;50.808;5.670;2023-04-03T05:25:50;21.08;;;17.10;;
25125;SDS011;13106;50.808;5.670;2023-04-03T05:28:16;19.13;;;15.88;;
25125;SDS011;13106;50.808;5.670;2023-04-03T05:30:42;25.15;;;22.70;;
25125;SDS011;13106;50.808;5.670;2023-04-03T05:33:08;20.48;;;18.40;;
25125;SDS011;13106;50.808;5.670;2023-04-03T05:35:35;21.77;;;19.48;;
25125;SDS011;13106;50.808;5.670;2023-04-03T05:38:04;18.48;;;14.88;;
25125;SDS011;13106;50.808;5.670;2023-04-03T05:40:31;18.33;;;15.73;;
25125;SDS011;13106;50.808;5.670;2023-04-03T05:42:56;18.63;;;14.68;;
25125;SDS011;13106;50.808;5.670;2023-04-03T05:45:22;17.77;;;14.70;;
25125;SDS011;13106;50.808;5.670;2023-04-03T05:47:48;20.25;;;15.68;;
25125;SDS011;13106;50.808;5.670;2023-04-03T05:50:15;24.33;;;17.05;;
25125;SDS011;13106;50.808;5.670;2023-04-03T05:52:42;19.08;;;16.75;;
25125;SDS011;13106;50.808;5.670;2023-04-03T05:55:09;18.48;;;14.57;;
25125;SDS011;13106;50.808;5.670;2023-04-03T05:57:35;21.65;;;17.58;;
25125;SDS011;13106;50.808;5.670;2023-04-03T06:00:02;20.38;;;18.20;;
25125;SDS011;13106;50.808;5.670;2023-04-03T06:02:28;21.67;;;19.42;;
25125;SDS011;13106;50.808;5.670;2023-04-03T06:04:56;25.30;;;22.70;;
25125;SDS011;13106;50.808;5.670;2023-04-03T06:07:23;17.48;;;15.70;;
25125;SDS011;13106;50.808;5.670;2023-04-03T06:12:19;16.13;;;13.77;;
25125;SDS011;13106;50.808;5.670;2023-04-03T06:14:45;19.63;;;17.42;;
25125;SDS011;13106;50.808;5.670;2023-04-03T06:17:11;23.48;;;21.23;;
25125;SDS011;13106;50.808;5.670;2023-04-03T06:19:38;17.77;;;11.60;;
25125;SDS011;13106;50.808;5.670;2023-04-03T06:22:04;14.38;;;12.23;;
25125;SDS011;13106;50.808;5.670;2023-04-03T06:24:30;16.42;;;14.65;;
25125;SDS011;13106;50.808;5.670;2023-04-03T06:26:57;15.00;;;13.40;;
25125;SDS011;13106;50.808;5.670;2023-04-03T06:29:23;22.08;;;19.13;;
25125;SDS011;13106;50.808;5.670;2023-04-03T06:31:49;18.98;;;17.30;;
25125;SDS011;13106;50.808;5.670;2023-04-03T06:34:16;18.73;;;16.80;;
25125;SDS011;13106;50.808;5.670;2023-04-03T06:36:43;16.67;;;14.93;;
25125;SDS011;13106;50.808;5.670;2023-04-03T06:39:13;19.30;;;17.35;;
25125;SDS011;13106;50.808;5.670;2023-04-03T06:41:40;19.77;;;14.38;;
25125;SDS011;13106;50.808;5.670;2023-04-03T06:44:06;19.33;;;17.52;;
25125;SDS011;13106;50.808;5.670;2023-04-03T06:46:36;18.95;;;15.63;;
25125;SDS011;13106;50.808;5.670;2023-04-03T06:49:02;17.35;;;14.68;;
25125;SDS011;13106;50.808;5.670;2023-04-03T06:51:29;16.58;;;14.90;;
25125;SDS011;13106;50.808;5.670;2023-04-03T06:53:56;16.95;;;14.65;;
25125;SDS011;13106;50.808;5.670;2023-04-03T06:56:23;15.35;;;13.68;;
25125;SDS011;13106;50.808;5.670;2023-04-03T06:58:50;14.70;;;13.10;;
25125;SDS011;13106;50.808;5.670;2023-04-03T07:01:17;12.70;;;9.73;;
25125;SDS011;13106;50.808;5.670;2023-04-03T07:03:47;11.90;;;9.73;;
25125;SDS011;13106;50.808;5.670;2023-04-03T07:06:13;15.85;;;13.63;;
25125;SDS011;13106;50.808;5.670;2023-04-03T07:08:40;15.85;;;12.23;;
25125;SDS011;13106;50.808;5.670;2023-04-03T07:11:07;14.10;;;12.60;;
25125;SDS011;13106;50.808;5.670;2023-04-03T07:13:33;13.55;;;10.77;;
25125;SDS011;13106;50.808;5.670;2023-04-03T07:16:00;10.43;;;8.32;;
25125;SDS011;13106;50.808;5.670;2023-04-03T07:18:26;15.05;;;8.77;;
25125;SDS011;13106;50.808;5.670;2023-04-03T07:20:52;17.25;;;12.30;;
25125;SDS011;13106;50.808;5.670;2023-04-03T07:23:18;12.32;;;9.60;;
25125;SDS011;13106;50.808;5.670;2023-04-03T07:25:45;15.38;;;11.27;;
25125;SDS011;13106;50.808;5.670;2023-04-03T07:28:11;12.88;;;11.05;;
25125;SDS011;13106;50.808;5.670;2023-04-03T07:30:48;16.63;;;15.23;;
25125;SDS011;13106;50.808;5.670;2023-04-03T07:33:15;12.45;;;8.63;;
25125;SDS011;13106;50.808;5.670;2023-04-03T07:35:41;11.60;;;8.48;;
25125;SDS011;13106;50.808;5.670;2023-04-03T07:38:08;10.65;;;8.20;;
25125;SDS011;13106;50.808;5.670;2023-04-03T07:40:35;10.18;;;8.27;;
25125;SDS011;13106;50.808;5.670;2023-04-03T07:43:01;10.82;;;7.95;;
25125;SDS011;13106;50.808;5.670;2023-04-03T07:45:27;11.25;;;7.00;;
25125;SDS011;13106;50.808;5.670;2023-04-03T07:47:53;18.13;;;16.52;;
25125;SDS011;13106;50.808;5.670;2023-04-03T07:50:19;9.98;;;8.80;;
25125;SDS011;13106;50.808;5.670;2023-04-03T07:52:46;9.68;;;8.68;;
25125;SDS011;13106;50.808;5.670;2023-04-03T07:55:12;9.38;;;5.82;;
25125;SDS011;13106;50.808;5.670;2023-04-03T07:57:38;9.90;;;5.50;;
25125;SDS011;13106;50.808;5.670;2023-04-03T08:00:05;12.50;;;5.75;;
25125;SDS011;13106;50.808;5.670;2023-04-03T08:02:31;10.48;;;8.63;;
25125;SDS011;13106;50.808;5.670;2023-04-03T08:04:58;10.15;;;9.15;;
25125;SDS011;13106;50.808;5.670;2023-04-03T08:07:24;9.77;;;7.72;;
25125;SDS011;13106;50.808;5.670;2023-04-03T08:09:50;7.72;;;6.65;;
25125;SDS011;13106;50.808;5.670;2023-04-03T08:12:16;11.85;;;6.95;;
25125;SDS011;13106;50.808;5.670;2023-04-03T08:14:43;10.73;;;6.57;;
25125;SDS011;13106;50.808;5.670;2023-04-03T08:17:09;13.35;;;7.63;;
25125;SDS011;13106;50.808;5.670;2023-04-03T08:19:37;8.23;;;6.15;;
25125;SDS011;13106;50.808;5.670;2023-04-03T08:22:03;9.73;;;7.03;;
25125;SDS011;13106;50.808;5.670;2023-04-03T08:24:30;10.85;;;6.57;;
25125;SDS011;13106;50.808;5.670;2023-04-03T08:26:56;7.70;;;6.28;;
25125;SDS011;13106;50.808;5.670;2023-04-03T08:29:23;7.28;;;6.15;;
25125;SDS011;13106;50.808;5.670;2023-04-03T08:31:50;7.47;;;6.03;;
25125;SDS011;13106;50.808;5.670;2023-04-03T08:34:16;10.38;;;7.25;;
25125;SDS011;13106;50.808;5.670;2023-04-03T08:36:42;7.43;;;6.57;;
25125;SDS011;13106;50.808;5.670;2023-04-03T08:39:09;7.10;;;5.57;;
25125;SDS011;13106;50.808;5.670;2023-04-03T08:41:37;9.43;;;5.55;;
25125;SDS011;13106;50.808;5.670;2023-04-03T08:44:11;8.85;;;5.82;;
25125;SDS011;13106;50.808;5.670;2023-04-03T08:51:56;11.02;;;6.40;;
25125;SDS011;13106;50.808;5.670;2023-04-03T08:54:28;6.07;;;5.38;;
25125;SDS011;13106;50.808;5.670;2023-04-03T08:56:56;7.15;;;3.80;;
25125;SDS011;13106;50.808;5.670;2023-04-03T08:59:28;6.00;;;4.03;;
25125;SDS011;13106;50.808;5.670;2023-04-03T09:01:55;7.90;;;6.43;;
25125;SDS011;13106;50.808;5.670;2023-04-03T09:04:21;7.72;;;4.88;;
25125;SDS011;13106;50.808;5.670;2023-04-03T09:06:52;5.50;;;5.00;;
25125;SDS011;13106;50.808;5.670;2023-04-03T09:09:33;9.20;;;5.30;;
25125;SDS011;13106;50.808;5.670;2023-04-03T09:12:21;7.82;;;4.97;;
25125;SDS011;13106;50.808;5.670;2023-04-03T09:22:45;6.95;;;4.18;;
25125;SDS011;13106;50.808;5.670;2023-04-03T09:27:37;7.03;;;5.07;;
25125;SDS011;13106;50.808;5.670;2023-04-03T09:30:03;10.45;;;4.30;;
25125;SDS011;13106;50.808;5.670;2023-04-03T09:32:35;6.60;;;5.70;;
25125;SDS011;13106;50.808;5.670;2023-04-03T09:35:03;7.22;;;4.22;;
25125;SDS011;13106;50.808;5.670;2023-04-03T09:37:40;5.50;;;4.32;;
25125;SDS011;13106;50.808;5.670;2023-04-03T09:40:29;11.93;;;4.20;;
25125;SDS011;13106;50.808;5.670;2023-04-03T09:43:18;6.60;;;3.78;;
25125;SDS011;13106;50.808;5.670;2023-04-03T09:45:45;4.65;;;3.60;;
25125;SDS011;13106;50.808;5.670;2023-04-03T09:50:51;6.13;;;3.70;;
25125;SDS011;13106;50.808;5.670;2023-04-03T09:53:39;6.28;;;2.55;;
25125;SDS011;13106;50.808;5.670;2023-04-03T09:56:18;9.88;;;2.60;;
25125;SDS011;13106;50.808;5.670;2023-04-03T10:04:02;5.30;;;2.70;;
25125;SDS011;13106;50.808;5.670;2023-04-03T10:06:29;6.22;;;2.20;;
25125;SDS011;13106;50.808;5.670;2023-04-03T10:09:01;8.00;;;3.00;;
25125;SDS011;13106;50.808;5.670;2023-04-03T10:11:29;4.80;;;2.95;;
25125;SDS011;13106;50.808;5.670;2023-04-03T10:13:59;4.35;;;2.20;;
25125;SDS011;13106;50.808;5.670;2023-04-03T10:16:27;5.10;;;2.67;;
25125;SDS011;13106;50.808;5.670;2023-04-03T10:24:13;4.32;;;2.13;;
25125;SDS011;13106;50.808;5.670;2023-04-03T10:31:44;5.00;;;1.63;;
25125;SDS011;13106;50.808;5.670;2023-04-03T10:34:21;3.97;;;1.80;;
25125;SDS011;13106;50.808;5.670;2023-04-03T10:41:59;6.10;;;2.72;;
25125;SDS011;13106;50.808;5.670;2023-04-03T10:47:05;5.50;;;2.00;;
25125;SDS011;13106;50.808;5.670;2023-04-03T10:54:36;3.83;;;2.40;;
25125;SDS011;13106;50.808;5.670;2023-04-03T10:57:05;7.15;;;2.05;;
25125;SDS011;13106;50.808;5.670;2023-04-03T10:59:32;5.53;;;1.90;;
25125;SDS011;13106;50.808;5.670;2023-04-03T11:04:34;6.05;;;5.65;;
25125;SDS011;13106;50.808;5.670;2023-04-03T11:07:02;7.00;;;2.40;;
25125;SDS011;13106;50.808;5.670;2023-04-03T11:09:33;5.38;;;2.17;;
25125;SDS011;13106;50.808;5.670;2023-04-03T11:12:06;5.68;;;1.90;;
25125;SDS011;13106;50.808;5.670;2023-04-03T11:14:36;4.53;;;1.90;;
25125;SDS011;13106;50.808;5.670;2023-04-03T11:24:38;5.28;;;1.80;;
25125;SDS011;13106;50.808;5.670;2023-04-03T11:27:05;7.63;;;1.77;;
25125;SDS011;13106;50.808;5.670;2023-04-03T11:29:34;4.32;;;1.50;;
25125;SDS011;13106;50.808;5.670;2023-04-03T11:34:48;6.65;;;1.95;;
25125;SDS011;13106;50.808;5.670;2023-04-03T11:40:36;6.43;;;2.00;;
25125;SDS011;13106;50.808;5.670;2023-04-03T11:42:38;5.53;;;1.95;;
25125;SDS011;13106;50.808;5.670;2023-04-03T11:47:56;2.33;;;1.58;;
25125;SDS011;13106;50.808;5.670;2023-04-03T11:52:56;4.28;;;1.80;;
25125;SDS011;13106;50.808;5.670;2023-04-03T12:05:54;3.60;;;1.30;;
25125;SDS011;13106;50.808;5.670;2023-04-03T12:08:26;4.25;;;1.50;;
25125;SDS011;13106;50.808;5.670;2023-04-03T12:13:18;5.45;;;1.50;;
25125;SDS011;13106;50.808;5.670;2023-04-03T12:15:47;4.55;;;1.60;;
25125;SDS011;13106;50.808;5.670;2023-04-03T12:20:58;4.35;;;1.73;;
25125;SDS011;13106;50.808;5.670;2023-04-03T12:23:34;6.30;;;1.77;;
25125;SDS011;13106;50.808;5.670;2023-04-03T12:28:29;3.00;;;1.48;;
25125;SDS011;13106;50.808;5.670;2023-04-03T12:30:55;4.03;;;1.58;;
25125;SDS011;13106;50.808;5.670;2023-04-03T12:33:36;4.97;;;1.63;;
25125;SDS011;13106;50.808;5.670;2023-04-03T12:36:07;2.90;;;1.35;;
25125;SDS011;13106;50.808;5.670;2023-04-03T12:46:35;4.43;;;1.70;;
25125;SDS011;13106;50.808;5.670;2023-04-03T12:49:10;3.67;;;1.90;;
25125;SDS011;13106;50.808;5.670;2023-04-03T12:51:41;3.60;;;1.35;;
25125;SDS011;13106;50.808;5.670;2023-04-03T12:54:16;3.30;;;1.45;;
25125;SDS011;13106;50.808;5.670;2023-04-03T12:56:42;3.28;;;1.35;;
25125;SDS011;13106;50.808;5.670;2023-04-03T13:01:41;7.88;;;2.00;;
25125;SDS011;13106;50.808;5.670;2023-04-03T13:04:09;4.25;;;2.05;;
25125;SDS011;13106;50.808;5.670;2023-04-03T13:06:41;4.32;;;2.13;;
25125;SDS011;13106;50.808;5.670;2023-04-03T13:09:24;8.20;;;1.70;;
25125;SDS011;13106;50.808;5.670;2023-04-03T13:11:55;3.83;;;1.30;;
25125;SDS011;13106;50.808;5.670;2023-04-03T13:14:24;4.95;;;1.75;;
25125;SDS011;13106;50.808;5.670;2023-04-03T13:16:58;4.65;;;1.23;;
25125;SDS011;13106;50.808;5.670;2023-04-03T13:19:25;4.50;;;1.80;;
25125;SDS011;13106;50.808;5.670;2023-04-03T13:22:05;4.75;;;1.70;;
25125;SDS011;13106;50.808;5.670;2023-04-03T13:24:32;3.08;;;1.55;;
25125;SDS011;13106;50.808;5.670;2023-04-03T13:27:00;4.18;;;1.42;;
25125;SDS011;13106;50.808;5.670;2023-04-03T13:29:30;4.35;;;1.70;;
25125;SDS011;13106;50.808;5.670;2023-04-03T13:34:24;2.95;;;1.27;;
25125;SDS011;13106;50.808;5.670;2023-04-03T13:41:46;4.78;;;2.35;;
25125;SDS011;13106;50.808;5.670;2023-04-03T13:46:48;5.10;;;1.52;;
25125;SDS011;13106;50.808;5.670;2023-04-03T13:49:34;2.35;;;1.40;;
25125;SDS011;13106;50.808;5.670;2023-04-03T13:52:02;3.97;;;1.42;;
25125;SDS011;13106;50.808;5.670;2023-04-03T13:54:30;2.25;;;1.02;;
25125;SDS011;13106;50.808;5.670;2023-04-03T13:56:57;3.22;;;1.60;;
25125;SDS011;13106;50.808;5.670;2023-04-03T13:59:27;6.10;;;1.27;;
25125;SDS011;13106;50.808;5.670;2023-04-03T14:02:38;6.97;;;1.63;;
25125;SDS011;13106;50.808;5.670;2023-04-03T14:07:09;9.82;;;6.45;;
25125;SDS011;13106;50.808;5.670;2023-04-03T14:09:35;3.67;;;1.17;;
25125;SDS011;13106;50.808;5.670;2023-04-03T14:12:03;8.77;;;1.50;;
25125;SDS011;13106;50.808;5.670;2023-04-03T14:14:32;4.63;;;1.43;;
25125;SDS011;13106;50.808;5.670;2023-04-03T14:16:59;4.72;;;1.60;;
25125;SDS011;13106;50.808;5.670;2023-04-03T14:19:30;4.38;;;1.50;;
25125;SDS011;13106;50.808;5.670;2023-04-03T14:21:57;4.53;;;1.40;;
25125;SDS011;13106;50.808;5.670;2023-04-03T14:24:23;3.20;;;1.52;;
25125;SDS011;13106;50.808;5.670;2023-04-03T14:26:50;3.55;;;1.40;;
25125;SDS011;13106;50.808;5.670;2023-04-03T14:29:17;5.85;;;1.77;;
25125;SDS011;13106;50.808;5.670;2023-04-03T14:31:43;3.10;;;1.52;;
25125;SDS011;13106;50.808;5.670;2023-04-03T14:34:13;3.63;;;1.67;;
25125;SDS011;13106;50.808;5.670;2023-04-03T14:36:40;3.38;;;1.23;;
25125;SDS011;13106;50.808;5.670;2023-04-03T14:39:07;2.58;;;1.17;;
25125;SDS011;13106;50.808;5.670;2023-04-03T14:41:33;2.97;;;1.38;;
25125;SDS011;13106;50.808;5.670;2023-04-03T14:44:00;3.40;;;1.48;;
25125;SDS011;13106;50.808;5.670;2023-04-03T14:46:30;3.83;;;1.55;;
25125;SDS011;13106;50.808;5.670;2023-04-03T14:48:56;4.95;;;2.70;;
25125;SDS011;13106;50.808;5.670;2023-04-03T14:51:23;3.70;;;1.48;;
25125;SDS011;13106;50.808;5.670;2023-04-03T14:53:49;2.53;;;1.27;;
25125;SDS011;13106;50.808;5.670;2023-04-03T14:56:21;3.20;;;1.58;;
25125;SDS011;13106;50.808;5.670;2023-04-03T14:58:49;3.40;;;1.27;;
25125;SDS011;13106;50.808;5.670;2023-04-03T15:01:17;2.58;;;1.40;;
25125;SDS011;13106;50.808;5.670;2023-04-03T15:03:43;3.85;;;1.30;;
25125;SDS011;13106;50.808;5.670;2023-04-03T15:06:12;3.15;;;1.33;;
25125;SDS011;13106;50.808;5.670;2023-04-03T15:08:39;2.63;;;1.13;;
25125;SDS011;13106;50.808;5.670;2023-04-03T15:11:06;5.28;;;1.27;;
25125;SDS011;13106;50.808;5.670;2023-04-03T15:13:33;3.15;;;1.50;;
25125;SDS011;13106;50.808;5.670;2023-04-03T15:15:59;3.47;;;1.20;;
25125;SDS011;13106;50.808;5.670;2023-04-03T15:18:25;4.32;;;1.67;;
25125;SDS011;13106;50.808;5.670;2023-04-03T15:20:52;3.35;;;1.10;;
25125;SDS011;13106;50.808;5.670;2023-04-03T15:23:19;3.90;;;1.33;;
25125;SDS011;13106;50.808;5.670;2023-04-03T15:25:46;1.98;;;1.30;;
25125;SDS011;13106;50.808;5.670;2023-04-03T15:28:18;3.58;;;2.53;;
25125;SDS011;13106;50.808;5.670;2023-04-03T15:30:44;5.07;;;1.23;;
25125;SDS011;13106;50.808;5.670;2023-04-03T15:33:10;3.13;;;1.50;;
25125;SDS011;13106;50.808;5.670;2023-04-03T15:35:36;3.55;;;1.52;;
25125;SDS011;13106;50.808;5.670;2023-04-03T15:38:02;2.50;;;1.20;;
25125;SDS011;13106;50.808;5.670;2023-04-03T15:40:28;5.85;;;2.95;;
25125;SDS011;13106;50.808;5.670;2023-04-03T15:42:55;4.63;;;3.78;;
25125;SDS011;13106;50.808;5.670;2023-04-03T15:45:21;6.57;;;2.63;;
25125;SDS011;13106;50.808;5.670;2023-04-03T15:47:47;3.22;;;1.70;;
25125;SDS011;13106;50.808;5.670;2023-04-03T15:50:13;2.63;;;1.35;;
25125;SDS011;13106;50.808;5.670;2023-04-03T15:52:39;4.50;;;1.73;;
25125;SDS011;13106;50.808;5.670;2023-04-03T15:55:05;6.47;;;1.52;;
25125;SDS011;13106;50.808;5.670;2023-04-03T15:57:32;3.28;;;1.90;;
25125;SDS011;13106;50.808;5.670;2023-04-03T15:59:58;4.43;;;2.83;;
25125;SDS011;13106;50.808;5.670;2023-04-03T16:02:24;3.40;;;1.90;;
25125;SDS011;13106;50.808;5.670;2023-04-03T16:04:53;2.55;;;1.23;;
25125;SDS011;13106;50.808;5.670;2023-04-03T16:07:19;1.50;;;1.33;;
25125;SDS011;13106;50.808;5.670;2023-04-03T16:09:45;2.10;;;1.33;;
25125;SDS011;13106;50.808;5.670;2023-04-03T16:12:11;4.75;;;1.30;;
25125;SDS011;13106;50.808;5.670;2023-04-03T16:14:38;3.95;;;1.88;;
25125;SDS011;13106;50.808;5.670;2023-04-03T16:17:04;4.07;;;3.67;;
25125;SDS011;13106;50.808;5.670;2023-04-03T16:19:30;2.10;;;1.40;;
25125;SDS011;13106;50.808;5.670;2023-04-03T16:21:57;3.60;;;1.35;;
25125;SDS011;13106;50.808;5.670;2023-04-03T16:24:23;4.68;;;1.40;;
25125;SDS011;13106;50.808;5.670;2023-04-03T16:26:49;4.70;;;1.73;;
25125;SDS011;13106;50.808;5.670;2023-04-03T16:29:15;3.83;;;1.70;;
25125;SDS011;13106;50.808;5.670;2023-04-03T16:31:41;2.60;;;1.20;;
25125;SDS011;13106;50.808;5.670;2023-04-03T16:34:07;4.43;;;1.30;;
25125;SDS011;13106;50.808;5.670;2023-04-03T16:36:34;4.72;;;1.95;;